首页
METAR-TAF:

METAR-TAF

机场 :

谢列梅捷沃国际机场

莫斯科舍列梅季耶夫, 俄罗斯

纬度: 55-58N, 经度: 037-25E, 海拔: 190米

当前天气观测

该预报发布于41分钟前的21:30 UTC
风速10节,风向
温度 3°C
湿度 70%
气压 1006 hPa
能见度10公里或以上
1500米以下无云,无积雨云

METAR: UUEE 292130Z 35005MPS CAVOK 03/M02 Q1006 R06R/CLRD62 NOSIG

时间: 01:11 (22:11 UTC)

预报

该预报发布于2小时和12分钟前的19:59 UTC
预报有效从29日的 21点(UTC)到 30日的 21点(UTC)
风速14节,风向
能見度: 9000
多云层高于1000英尺
成为
从 30日的 03点(UTC)到 30日的 05点(UTC)
能見度: 3100
阴天层高于700英尺
小雪
短暂存在
从 30日的 06点(UTC)到 30日的 21点(UTC)
风速16节,风向北转东北,有时为25节阵风
能見度: 1000
阴天层高于500英尺
多云层高于1100英尺, 积雨云.
阵雪

TAF: UUEE 291959Z 2921/3021 36007MPS 9000 BKN010 TX04/2921Z TNM01/3006Z BECMG 3003/3005 3100 -SN OVC007 TEMPO 3006/3021 02008G13MPS 1000 SHSN OVC005 BKN011CB

超过4000个机场的气象观测和天气预报(METAR&TAF报告)。

可查询的气象台以黄色和红色小点在地图上表示。

将鼠标移到小点上方,可查看气象台名称。

然后点击查看天气观测和预报。

如需切换地图:点击带黑十字的绿色按钮放大地图;点击带横线的绿色按钮缩小地图;或者点击绿色箭头查看邻近地区的地图。


METAR-TAF: